Time;durP1;ratioP1;P1;durP2;ratioP2;P2;SDS_P1;SDS_P2;PMS_P1;PMS_P2;Temp;Humidity;BMP_temperature;BMP_pressure;BME280_temperature;BME280_humidity;BME280_pressure;Samples;Min_cycle;Max_cycle;Signal;HPM_P1;HPM_P2
2022/09/25 00:00:36;;;;;;;18.73;16.80;;;;;;;12.15;100.00;99753.47;5014935;28;20300;-71
2022/09/25 00:03:03;;;;;;;17.93;16.03;;;;;;;11.99;100.00;99755.44;5009212;28;20194;-72
2022/09/25 00:05:28;;;;;;;17.60;15.80;;;;;;;11.93;100.00;99752.31;5009720;28;20217;-71
2022/09/25 00:07:55;;;;;;;18.83;15.90;;;;;;;12.00;100.00;99755.31;5010082;28;20261;-71
2022/09/25 00:10:24;;;;;;;18.67;16.67;;;;;;;12.05;100.00;99753.25;5003721;28;20198;-71
2022/09/25 00:12:49;;;;;;;20.90;17.40;;;;;;;11.99;100.00;99755.44;5008682;28;20201;-71
2022/09/25 00:15:16;;;;;;;17.23;15.43;;;;;;;11.93;100.00;99761.78;5020493;28;20526;-71
2022/09/25 00:17:42;;;;;;;17.73;16.03;;;;;;;11.97;100.00;99765.00;5010636;28;20217;-71
2022/09/25 00:20:10;;;;;;;22.93;16.90;;;;;;;11.97;100.00;99760.69;5000640;28;20206;-70
2022/09/25 00:22:38;;;;;;;18.57;16.37;;;;;;;12.06;100.00;99767.00;5009537;28;20179;-69
2022/09/25 00:25:06;;;;;;;21.77;17.17;;;;;;;12.18;100.00;99755.88;5009243;28;20376;-73
2022/09/25 00:27:32;;;;;;;17.67;15.57;;;;;;;12.09;100.00;99753.88;5022901;28;20210;-71
2022/09/25 00:29:58;;;;;;;22.30;17.67;;;;;;;12.08;100.00;99753.06;5010367;28;20218;-74
2022/09/25 00:32:24;;;;;;;19.37;17.33;;;;;;;12.18;100.00;99758.44;5014753;28;20234;-69
2022/09/25 00:34:49;;;;;;;21.30;16.47;;;;;;;12.06;100.00;99754.09;5007158;28;20179;-74
2022/09/25 00:37:20;;;;;;;18.33;16.00;;;;;;;11.95;100.00;99749.63;5028099;28;20186;-69
2022/09/25 00:39:45;;;;;;;18.47;14.90;;;;;;;11.97;100.00;99749.53;5016895;28;20188;-69
2022/09/25 00:42:15;;;;;;;16.83;14.53;;;;;;;11.91;100.00;99743.84;5000166;28;20309;-68
2022/09/25 00:44:57;;;;;;;18.33;14.97;;;;;;;11.76;100.00;99737.13;5023271;28;20202;-69
2022/09/25 00:47:37;;;;;;;17.27;14.20;;;;;;;11.76;100.00;99739.69;5022131;28;20190;-69
2022/09/25 00:50:15;;;;;;;16.03;13.13;;;;;;;11.94;100.00;99745.38;5021875;28;20182;-69
2022/09/25 00:52:43;;;;;;;17.73;13.60;;;;;;;12.07;100.00;99741.09;5042985;28;20201;-69
2022/09/25 00:55:11;;;;;;;18.63;16.00;;;;;;;12.16;100.00;99744.81;5022232;28;20190;-68
2022/09/25 00:57:39;;;;;;;16.83;14.47;;;;;;;12.17;100.00;99741.31;5022425;28;20186;-70
2022/09/25 01:00:08;;;;;;;20.13;15.13;;;;;;;12.27;100.00;99744.91;5019713;28;20223;-69
2022/09/25 01:02:39;;;;;;;20.47;15.37;;;;;;;12.28;100.00;99738.03;5033790;28;20264;-69
2022/09/25 01:05:13;;;;;;;20.43;15.90;;;;;;;12.33;100.00;99742.84;5019043;28;20201;-69
2022/09/25 01:07:45;;;;;;;18.07;15.43;;;;;;;12.31;100.00;99735.22;5011423;28;20225;-69
2022/09/25 01:10:13;;;;;;;21.40;15.70;;;;;;;12.31;100.00;99737.00;5010509;28;20970;-69
2022/09/25 01:12:42;;;;;;;26.57;18.47;;;;;;;12.34;100.00;99734.19;5037638;28;20213;-69
2022/09/25 01:15:10;;;;;;;25.60;18.00;;;;;;;12.33;100.00;99740.28;5017476;28;20178;-74
2022/09/25 01:17:59;;;;;;;24.23;16.37;;;;;;;12.20;100.00;99730.78;5020350;28;20210;-69
2022/09/25 01:20:49;;;;;;;22.47;15.93;;;;;;;12.25;100.00;99738.22;5003343;28;20263;-70
2022/09/25 01:23:47;;;;;;;22.67;16.13;;;;;;;12.24;100.00;99736.56;5019882;28;20178;-69
2022/09/25 01:26:37;;;;;;;21.53;15.87;;;;;;;12.23;100.00;99742.63;5013427;28;20179;-70
2022/09/25 01:29:09;;;;;;;23.63;16.37;;;;;;;12.25;100.00;99738.22;5001871;28;20175;-70
2022/09/25 01:31:44;;;;;;;25.17;17.80;;;;;;;12.23;100.00;99729.75;5007690;28;20248;-71
2022/09/25 01:34:24;;;;;;;24.23;17.30;;;;;;;12.27;100.00;99728.63;5010389;28;20182;-69
2022/09/25 01:36:56;;;;;;;23.10;16.63;;;;;;;12.20;100.00;99728.19;5012744;28;20256;-69
2022/09/25 01:39:31;;;;;;;23.10;17.80;;;;;;;12.25;100.00;99731.31;5019821;28;20327;-70
2022/09/25 01:42:17;;;;;;;29.90;19.90;;;;;;;12.20;100.00;99730.78;5018754;28;20291;-70
2022/09/25 01:44:51;;;;;;;31.67;20.73;;;;;;;12.26;100.00;99729.56;5010102;28;20316;-70
2022/09/25 01:47:21;;;;;;;28.77;21.27;;;;;;;12.34;100.00;99727.28;5022266;28;20204;-71
2022/09/25 01:50:07;;;;;;;29.10;18.90;;;;;;;12.33;100.00;99723.06;5014008;28;20584;-70
2022/09/25 01:52:48;;;;;;;24.33;17.73;;;;;;;12.30;100.00;99715.50;4988860;28;20692;-70
2022/09/25 01:55:30;;;;;;;29.53;18.00;;;;;;;12.38;100.00;99715.84;5001824;28;20185;-69
2022/09/25 01:58:20;;;;;;;27.03;18.03;;;;;;;12.31;100.00;99712.00;5010352;28;20186;-71
2022/09/25 02:00:54;;;;;;;20.73;16.63;;;;;;;12.04;100.00;99706.97;5016905;28;20237;-69
2022/09/25 02:03:26;;;;;;;27.10;17.80;;;;;;;12.14;100.00;99707.19;5016933;28;20598;-71
2022/09/25 02:05:55;;;;;;;27.10;18.27;;;;;;;12.09;100.00;99704.91;5008181;28;20275;-71
2022/09/25 02:08:26;;;;;;;27.47;17.70;;;;;;;12.08;100.00;99706.66;5015162;28;20190;-70
2022/09/25 02:11:02;;;;;;;27.47;18.70;;;;;;;12.07;100.00;99709.34;5021504;28;20233;-71
2022/09/25 02:13:36;;;;;;;29.27;18.90;;;;;;;12.08;100.00;99710.97;5017855;28;20181;-70
2022/09/25 02:16:08;;;;;;;25.93;18.47;;;;;;;12.10;100.00;99716.88;5016057;28;20186;-70
2022/09/25 02:21:36;;;;;;;26.63;17.40;;;;;;;11.93;100.00;99711.06;5026462;28;20232;-70
2022/09/25 02:24:19;;;;;;;27.03;18.27;;;;;;;11.91;100.00;99705.19;5009772;28;20228;-71
2022/09/25 02:26:48;;;;;;;23.63;17.97;;;;;;;12.00;100.00;99716.66;5019428;28;20268;-69
2022/09/25 02:29:14;;;;;;;25.63;18.53;;;;;;;12.05;100.00;99716.34;5025884;28;20189;-70
2022/09/25 02:31:54;;;;;;;28.03;17.90;;;;;;;12.03;100.00;99713.03;5015688;28;20246;-70
2022/09/25 02:34:20;;;;;;;29.80;18.40;;;;;;;12.04;100.00;99712.94;5021186;28;20186;-70
2022/09/25 02:36:46;;;;;;;30.90;18.50;;;;;;;12.13;100.00;99705.53;5017238;28;20698;-70
2022/09/25 02:39:16;;;;;;;26.70;17.77;;;;;;;12.10;100.00;99704.78;5019736;28;20183;-72
2022/09/25 02:42:06;;;;;;;27.13;18.50;;;;;;;12.01;100.00;99697.69;5019819;28;20237;-71
2022/09/25 02:44:56;;;;;;;30.23;18.47;;;;;;;12.04;100.00;99704.38;5022795;28;20568;-71
2022/09/25 02:47:34;;;;;;;29.33;19.23;;;;;;;12.08;100.00;99704.09;5027011;28;20187;-72
2022/09/25 02:50:18;;;;;;;30.20;18.93;;;;;;;11.94;100.00;99702.41;5011278;28;20180;-70
2022/09/25 02:53:10;;;;;;;23.63;18.50;;;;;;;11.83;100.00;99704.84;5000426;28;20269;-71
2022/09/25 02:55:42;;;;;;;25.37;18.90;;;;;;;11.82;100.00;99702.38;5020724;28;20203;-70
2022/09/25 02:58:24;;;;;;;23.30;18.37;;;;;;;11.80;100.00;99699.91;5010847;28;20198;-71
2022/09/25 03:00:52;;;;;;;24.97;18.33;;;;;;;11.99;100.00;99707.28;4985182;28;20727;-70
2022/09/25 03:03:19;;;;;;;24.90;18.93;;;;;;;12.05;100.00;99706.84;5007018;28;20547;-71
2022/09/25 03:05:47;;;;;;;27.50;19.43;;;;;;;12.13;100.00;99708.94;5021989;28;20748;-70
2022/09/25 03:10:57;;;;;;;23.10;19.17;;;;;;;11.86;100.00;99706.44;5011053;28;20287;-71
2022/09/25 03:13:30;;;;;;;22.93;18.90;;;;;;;11.78;100.00;99712.06;5014576;28;20185;-71
2022/09/25 03:15:58;;;;;;;21.67;18.67;;;;;;;11.89;100.00;99708.78;5015416;28;20229;-71
2022/09/25 03:18:24;;;;;;;23.40;17.90;;;;;;;12.02;100.00;99716.53;5030205;28;20217;-71
2022/09/25 03:20:51;;;;;;;24.97;19.23;;;;;;;12.09;100.00;99712.63;4999224;28;20756;-71
2022/09/25 03:23:16;;;;;;;26.30;20.63;;;;;;;12.08;100.00;99721.28;5013925;28;20547;-72
2022/09/25 03:25:42;;;;;;;24.40;21.00;;;;;;;12.00;100.00;99715.84;5016107;28;20218;-71
2022/09/25 03:28:09;;;;;;;28.17;22.93;;;;;;;11.80;100.00;99710.22;5011877;28;20182;-71
2022/09/25 03:30:37;;;;;;;28.13;21.77;;;;;;;11.90;100.00;99710.44;4990166;28;20241;-71
2022/09/25 03:33:02;;;;;;;28.53;23.17;;;;;;;11.90;100.00;99716.41;5020398;28;20564;-72
2022/09/25 03:35:27;;;;;;;28.40;23.13;;;;;;;11.97;100.00;99716.03;5024500;28;20182;-71
2022/09/25 03:37:53;;;;;;;27.07;23.10;;;;;;;11.94;100.00;99712.72;5027964;28;20194;-72
2022/09/25 03:40:18;;;;;;;26.83;23.30;;;;;;;12.01;100.00;99713.16;5012029;28;20189;-71
2022/09/25 03:42:43;;;;;;;28.67;23.50;;;;;;;12.06;100.00;99708.50;5040113;28;20637;-72
2022/09/25 03:45:09;;;;;;;31.40;23.10;;;;;;;12.10;100.00;99707.38;5025905;28;20234;-72
2022/09/25 03:47:34;;;;;;;29.03;22.97;;;;;;;12.13;100.00;99705.53;5025306;28;20190;-71
2022/09/25 03:49:59;;;;;;;34.03;25.07;;;;;;;12.15;100.00;99708.84;5017835;28;20185;-71
2022/09/25 03:52:24;;;;;;;30.77;25.70;;;;;;;12.18;100.00;99706.03;5008381;28;20226;-71
2022/09/25 03:54:50;;;;;;;30.97;24.13;;;;;;;12.22;100.00;99704.91;5012461;28;20622;-70
2022/09/25 03:57:15;;;;;;;31.97;25.43;;;;;;;12.17;100.00;99700.06;5010419;28;20189;-71
2022/09/25 03:59:40;;;;;;;37.13;25.47;;;;;;;12.13;100.00;99705.53;5027563;28;20189;-70
2022/09/25 04:02:06;;;;;;;35.00;25.10;;;;;;;12.04;100.00;99700.03;5012667;28;20237;-69
2022/09/25 04:04:31;;;;;;;32.90;25.77;;;;;;;12.06;100.00;99702.53;5012197;28;20234;-71
2022/09/25 04:06:57;;;;;;;30.77;24.80;;;;;;;12.09;100.00;99708.31;5011903;28;20181;-71
2022/09/25 04:09:22;;;;;;;30.53;24.77;;;;;;;12.15;100.00;99703.69;5023553;28;20633;-69
2022/09/25 04:11:47;;;;;;;33.10;24.90;;;;;;;12.20;100.00;99709.34;5015035;28;20316;-70
2022/09/25 04:14:13;;;;;;;31.47;25.33;;;;;;;12.22;100.00;99703.16;5019720;28;20181;-70
2022/09/25 04:16:39;;;;;;;31.33;26.00;;;;;;;12.30;100.00;99701.81;5023887;28;20174;-70
2022/09/25 04:19:04;;;;;;;30.10;24.77;;;;;;;12.29;100.00;99710.47;5016311;28;20178;-70
2022/09/25 04:21:29;;;;;;;29.60;25.37;;;;;;;12.34;100.00;99708.41;5007013;28;20696;-70
2022/09/25 04:26:38;;;;;;;29.93;24.87;;;;;;;12.41;100.00;99707.88;5013995;28;20213;-70
2022/09/25 04:29:04;;;;;;;32.33;25.77;;;;;;;12.40;100.00;99703.66;5022013;28;20182;-70
2022/09/25 04:31:31;;;;;;;30.40;25.33;;;;;;;12.38;100.00;99702.13;5024538;28;20620;-71
2022/09/25 04:33:56;;;;;;;31.33;25.63;;;;;;;12.31;100.00;99706.84;5024023;28;20657;-72
2022/09/25 04:36:21;;;;;;;32.60;26.33;;;;;;;12.22;100.00;99708.31;5029469;28;20195;-72
2022/09/25 04:38:47;;;;;;;28.40;24.40;;;;;;;12.23;100.00;99702.22;5016805;28;20212;-72
2022/09/25 04:41:15;;;;;;;32.87;25.53;;;;;;;12.27;100.00;99705.44;5012313;28;20689;-70
2022/09/25 04:43:42;;;;;;;27.93;23.73;;;;;;;12.25;100.00;99700.38;5020400;28;20187;-70
2022/09/25 04:46:09;;;;;;;26.93;24.17;;;;;;;12.24;100.00;99706.47;5025761;28;20677;-72
2022/09/25 04:48:35;;;;;;;26.20;22.83;;;;;;;12.26;100.00;99701.19;5014958;28;20194;-71
2022/09/25 04:51:01;;;;;;;29.10;23.40;;;;;;;12.23;100.00;99712.53;5007713;28;20308;-70
2022/09/25 04:53:28;;;;;;;29.03;23.17;;;;;;;12.23;100.00;99711.69;5011769;28;20195;-72
2022/09/25 04:56:04;;;;;;;30.37;24.10;;;;;;;12.25;100.00;99712.44;5012807;28;20657;-72
2022/09/25 04:58:29;;;;;;;28.87;25.10;;;;;;;12.27;100.00;99711.41;5009057;28;20176;-70
2022/09/25 05:00:55;;;;;;;31.47;25.50;;;;;;;12.29;100.00;99711.28;5005674;28;20657;-70
2022/09/25 05:03:20;;;;;;;38.43;26.13;;;;;;;12.30;100.00;99712.13;5010521;28;20613;-71
2022/09/25 05:05:45;;;;;;;29.63;25.17;;;;;;;12.28;100.00;99704.50;5013628;28;20219;-71
2022/09/25 05:08:10;;;;;;;33.27;24.97;;;;;;;12.30;100.00;99709.53;5014194;28;20244;-71
2022/09/25 05:10:38;;;;;;;36.40;27.37;;;;;;;12.23;100.00;99703.97;5010185;28;20588;-71
2022/09/25 05:13:04;;;;;;;33.13;25.40;;;;;;;12.27;100.00;99710.59;5025981;28;20182;-71
2022/09/25 05:15:32;;;;;;;37.47;26.37;;;;;;;12.05;100.00;99704.28;5014649;28;20708;-71
2022/09/25 05:18:02;;;;;;;30.73;24.60;;;;;;;12.02;100.00;99711.38;5011918;28;20222;-78
2022/09/25 05:20:27;;;;;;;35.30;25.93;;;;;;;11.92;100.00;99711.13;5005950;28;20234;-71
2022/09/25 05:22:55;;;;;;;35.13;24.77;;;;;;;11.96;100.00;99715.22;5009713;28;20186;-71
2022/09/25 05:25:22;;;;;;;31.70;24.83;;;;;;;12.04;100.00;99712.13;5012877;28;20309;-71
2022/09/25 05:27:49;;;;;;;35.83;26.13;;;;;;;12.12;100.00;99707.28;5012468;28;20656;-70
2022/09/25 05:30:15;;;;;;;35.67;26.63;;;;;;;12.16;100.00;99710.50;5003644;28;20183;-70
2022/09/25 05:32:48;;;;;;;34.30;26.07;;;;;;;12.09;100.00;99713.47;5025982;28;20313;-70
2022/09/25 05:35:13;;;;;;;34.47;26.17;;;;;;;12.17;100.00;99709.53;5013528;28;20273;-72
2022/09/25 05:37:38;;;;;;;32.17;25.97;;;;;;;12.23;100.00;99714.28;5014719;28;20333;-71
2022/09/25 05:40:04;;;;;;;33.57;25.40;;;;;;;12.19;100.00;99718.00;5004775;28;20191;-71
2022/09/25 05:42:29;;;;;;;37.53;27.00;;;;;;;12.24;100.00;99718.50;5027896;28;20190;-71
2022/09/25 05:44:55;;;;;;;32.30;25.87;;;;;;;12.31;100.00;99717.16;5019627;28;20208;-71
2022/09/25 05:47:20;;;;;;;36.60;26.33;;;;;;;12.29;100.00;99716.44;5019127;28;20195;-71
2022/09/25 05:49:45;;;;;;;34.90;26.77;;;;;;;12.32;100.00;99707.69;5018057;28;20284;-71
2022/09/25 05:52:11;;;;;;;34.40;26.13;;;;;;;12.36;100.00;99715.09;5003654;28;20745;-72
2022/09/25 05:54:36;;;;;;;37.03;26.70;;;;;;;12.40;100.00;99711.41;5030672;28;20268;-71
2022/09/25 05:57:01;;;;;;;34.70;25.83;;;;;;;12.45;100.00;99715.41;5020562;28;20198;-71
2022/09/25 05:59:27;;;;;;;35.27;25.60;;;;;;;12.46;100.00;99710.13;5014085;28;20662;-72
2022/09/25 06:01:52;;;;;;;36.90;26.77;;;;;;;12.47;100.00;99719.53;5005225;28;20230;-71
2022/09/25 06:04:18;;;;;;;33.13;25.73;;;;;;;12.48;100.00;99723.78;5014752;28;20692;-71
2022/09/25 06:06:43;;;;;;;32.83;24.93;;;;;;;12.48;100.00;99715.19;5019578;28;20239;-73
2022/09/25 06:09:08;;;;;;;32.10;25.47;;;;;;;12.51;100.00;99720.97;5014203;28;20187;-70
2022/09/25 06:11:33;;;;;;;30.53;25.60;;;;;;;12.34;100.00;99713.56;5021815;28;20634;-71
2022/09/25 06:13:59;;;;;;;29.33;25.10;;;;;;;12.36;100.00;99724.59;5016478;28;20286;-71
2022/09/25 06:16:24;;;;;;;27.63;23.53;;;;;;;12.35;100.00;99720.38;5015422;28;20281;-71
2022/09/25 06:18:51;;;;;;;26.70;22.73;;;;;;;12.37;100.00;99727.06;5024618;28;20182;-72
2022/09/25 06:21:16;;;;;;;23.30;20.70;;;;;;;12.29;100.00;99724.19;5009319;28;20942;-70
2022/09/25 06:23:44;;;;;;;29.63;22.90;;;;;;;12.43;100.00;99731.00;5010011;28;20192;-73
2022/09/25 06:26:09;;;;;;;25.10;22.40;;;;;;;12.55;100.00;99725.00;4998156;28;20190;-72
2022/09/25 06:28:35;;;;;;;28.80;23.70;;;;;;;12.54;100.00;99727.66;5004108;28;20191;-71
2022/09/25 06:31:02;;;;;;;32.07;23.40;;;;;;;12.53;100.00;99720.88;5000904;28;20254;-75
2022/09/25 06:33:27;;;;;;;28.77;22.93;;;;;;;12.54;100.00;99730.25;4995090;28;20238;-71
2022/09/25 06:35:53;;;;;;;24.83;20.57;;;;;;;12.63;100.00;99731.38;5006352;28;20209;-72
2022/09/25 06:38:18;;;;;;;29.63;21.47;;;;;;;12.61;100.00;99734.06;5012863;28;20543;-71
2022/09/25 06:40:43;;;;;;;22.87;20.57;;;;;;;12.58;100.00;99732.50;5017375;28;20238;-71
2022/09/25 06:43:11;;;;;;;26.07;21.67;;;;;;;12.67;100.00;99730.25;5025457;28;20214;-70
2022/09/25 06:45:38;;;;;;;24.77;21.40;;;;;;;12.66;100.00;99731.16;5006602;28;20584;-73
2022/09/25 06:48:09;;;;;;;24.90;20.00;;;;;;;12.70;100.00;99735.19;4998431;28;20179;-72
2022/09/25 06:50:42;;;;;;;21.47;19.17;;;;;;;12.83;100.00;99732.59;5003789;28;20229;-73
2022/09/25 06:53:09;;;;;;;23.60;19.57;;;;;;;12.89;100.00;99724.41;5014315;28;20264;-73
2022/09/25 06:55:36;;;;;;;22.13;19.80;;;;;;;12.91;100.00;99720.78;5009650;28;20183;-73
2022/09/25 06:58:03;;;;;;;21.87;19.57;;;;;;;12.97;100.00;99724.69;5011818;28;20262;-73
2022/09/25 07:00:28;;;;;;;20.47;18.27;;;;;;;13.15;100.00;99727.72;4990051;28;20237;-73
2022/09/25 07:05:37;;;;;;;21.47;17.63;;;;;;;13.34;100.00;99726.41;5010434;28;20221;-73
2022/09/25 07:08:03;;;;;;;20.47;18.37;;;;;;;13.54;100.00;99719.81;5012833;28;20183;-73
2022/09/25 07:10:28;;;;;;;19.10;17.07;;;;;;;13.63;100.00;99720.91;5002346;28;20237;-73
2022/09/25 07:12:53;;;;;;;16.43;13.10;;;;;;;13.88;100.00;99717.34;5010496;28;20183;-73
2022/09/25 07:15:19;;;;;;;13.93;12.63;;;;;;;13.83;100.00;99722.84;5004104;28;20550;-73
2022/09/25 07:17:44;;;;;;;14.03;12.63;;;;;;;13.98;100.00;99720.88;5007535;28;20183;-73
2022/09/25 07:20:14;;;;;;;14.00;12.33;;;;;;;14.07;100.00;99723.72;4997961;28;20183;-74
2022/09/25 07:22:39;;;;;;;15.27;12.83;;;;;;;14.01;100.00;99722.41;5026773;28;20536;-74
2022/09/25 07:25:05;;;;;;;13.80;12.50;;;;;;;14.00;100.00;99718.16;5009988;28;20218;-73
2022/09/25 07:27:31;;;;;;;12.33;11.07;;;;;;;14.11;100.00;99725.94;5013421;28;20650;-73
2022/09/25 07:29:56;;;;;;;13.10;11.90;;;;;;;14.23;100.00;99724.19;5011269;28;20201;-73
2022/09/25 07:32:21;;;;;;;13.00;11.83;;;;;;;14.07;100.00;99721.13;4964755;28;20224;-73
2022/09/25 07:34:49;;;;;;;12.87;11.67;;;;;;;14.14;100.00;99722.28;5017082;28;20197;-73
2022/09/25 07:37:16;;;;;;;12.23;11.13;;;;;;;14.04;100.00;99735.09;5007175;28;20179;-74
2022/09/25 07:39:42;;;;;;;12.30;11.10;;;;;;;14.10;100.00;99721.69;5011447;28;20265;-72
2022/09/25 07:42:08;;;;;;;10.77;9.77;;;;;;;14.20;100.00;99722.66;5016169;28;20312;-74
2022/09/25 07:44:33;;;;;;;11.87;10.77;;;;;;;14.12;100.00;99726.78;5016877;28;20204;-73
2022/09/25 07:47:00;;;;;;;12.13;10.90;;;;;;;14.03;100.00;99723.13;5020879;28;20225;-73
2022/09/25 07:49:25;;;;;;;10.27;9.27;;;;;;;14.09;100.00;99719.25;5009055;28;20227;-73
2022/09/25 07:51:51;;;;;;;10.13;9.13;;;;;;;13.91;100.00;99727.44;5014490;28;20585;-72
2022/09/25 07:54:16;;;;;;;11.27;10.03;;;;;;;14.30;100.00;99719.38;5020360;28;20288;-74
2022/09/25 07:56:41;;;;;;;10.87;9.87;;;;;;;14.13;100.00;99725.84;5026769;28;20285;-73
2022/09/25 07:59:07;;;;;;;11.37;9.17;;;;;;;14.37;100.00;99725.72;5021135;28;20555;-74
2022/09/25 08:01:32;;;;;;;11.20;10.10;;;;;;;14.36;100.00;99726.66;5011589;28;20284;-74
2022/09/25 08:03:58;;;;;;;11.27;9.97;;;;;;;14.34;100.00;99729.38;5021039;28;20618;-74
2022/09/25 08:06:23;;;;;;;10.97;9.87;;;;;;;14.43;100.00;99725.25;5016100;28;20238;-73
2022/09/25 08:08:48;;;;;;;10.70;9.67;;;;;;;14.68;100.00;99726.78;5011475;28;20599;-73
2022/09/25 08:11:16;;;;;;;13.00;10.50;;;;;;;14.62;100.00;99729.03;5003366;28;20324;-74
2022/09/25 08:13:42;;;;;;;11.77;10.53;;;;;;;14.95;100.00;99724.78;5028041;28;20179;-75
2022/09/25 08:16:16;;;;;;;10.33;9.23;;;;;;;15.08;100.00;99722.88;5012062;28;20225;-74
2022/09/25 08:18:46;;;;;;;9.97;9.03;;;;;;;15.12;100.00;99726.00;5016761;28;20300;-73
2022/09/25 08:21:14;;;;;;;10.60;9.57;;;;;;;14.99;100.00;99721.81;5011993;28;20312;-72
2022/09/25 08:23:40;;;;;;;9.20;8.30;;;;;;;14.73;100.00;99725.63;5030663;28;20278;-74
2022/09/25 08:26:06;;;;;;;10.10;9.20;;;;;;;14.65;100.00;99721.06;5010474;28;20276;-72
2022/09/25 08:28:32;;;;;;;9.90;8.90;;;;;;;14.65;100.00;99718.47;5013588;28;20190;-72
2022/09/25 08:31:03;;;;;;;9.37;8.50;;;;;;;14.73;100.00;99728.22;5011320;28;20231;-72
2022/09/25 08:33:33;;;;;;;9.17;8.23;;;;;;;14.62;100.00;99731.59;5034045;28;20522;-72
2022/09/25 08:36:00;;;;;;;8.53;7.73;;;;;;;14.66;100.00;99733.88;5017305;28;20228;-72
2022/09/25 08:38:27;;;;;;;11.07;8.33;;;;;;;14.80;100.00;99730.22;5019093;28;20206;-72
2022/09/25 08:41:08;;;;;;;9.80;8.63;;;;;;;14.67;100.00;99735.53;5018297;28;20233;-79
2022/09/25 08:43:39;;;;;;;9.30;7.87;;;;;;;14.87;100.00;99724.53;5016980;28;20204;-73
2022/09/25 08:49:01;;;;;;;10.60;7.40;;;;;;;15.22;100.00;99726.94;5014634;28;20201;-72
2022/09/25 08:51:32;;;;;;;9.20;7.50;;;;;;;15.45;100.00;99730.25;5025580;28;20313;-72
2022/09/25 08:53:59;;;;;;;9.63;8.73;;;;;;;15.57;100.00;99725.03;5009241;28;20190;-81
2022/09/25 08:56:27;;;;;;;9.43;8.63;;;;;;;15.37;100.00;99722.28;5024395;28;20547;-72
2022/09/25 08:58:59;;;;;;;10.33;9.17;;;;;;;15.14;100.00;99718.94;5009036;28;20195;-74
2022/09/25 09:01:27;;;;;;;9.77;8.83;;;;;;;15.09;100.00;99723.69;5014624;28;20681;-72
2022/09/25 09:04:04;;;;;;;11.13;10.07;;;;;;;15.18;100.00;99725.53;5013054;28;20286;-73
2022/09/25 09:06:31;;;;;;;11.40;10.20;;;;;;;15.19;100.00;99731.53;5013353;28;20186;-72
2022/09/25 09:09:07;;;;;;;12.57;11.27;;;;;;;15.26;100.00;99724.94;5014926;28;20233;-72
2022/09/25 09:11:38;;;;;;;11.30;10.20;;;;;;;15.42;100.00;99722.75;5006392;28;20316;-73
2022/09/25 09:14:10;;;;;;;11.60;10.43;;;;;;;15.42;100.00;99730.50;5017744;28;20261;-72
2022/09/25 09:16:59;;;;;;;12.27;11.07;;;;;;;14.94;100.00;99725.72;5014090;28;20598;-72
2022/09/25 09:19:24;;;;;;;12.13;11.07;;;;;;;15.19;100.00;99727.16;5026303;28;20273;-72
2022/09/25 09:21:59;;;;;;;11.10;10.00;;;;;;;15.31;100.00;99727.97;5005015;28;20332;-72
2022/09/25 09:24:53;;;;;;;11.60;10.50;;;;;;;14.95;100.00;99729.97;5016953;28;20209;-72
2022/09/25 09:27:21;;;;;;;11.90;10.83;;;;;;;15.02;100.00;99731.13;5026533;28;20185;-72
2022/09/25 09:30:01;;;;;;;12.80;11.50;;;;;;;15.06;100.00;99734.25;5021526;28;20178;-74
2022/09/25 09:33:04;;;;;;;12.63;11.33;;;;;;;14.58;100.00;99733.59;4988515;28;20258;-71
2022/09/25 09:35:43;;;;;;;12.93;11.17;;;;;;;14.54;100.00;99732.22;5009192;28;20277;-71
2022/09/25 09:38:22;;;;;;;12.27;11.17;;;;;;;14.48;100.00;99733.50;5023215;28;20189;-71
2022/09/25 09:41:02;;;;;;;13.07;11.80;;;;;;;14.82;100.00;99741.28;5008119;28;20365;-71
2022/09/25 09:43:33;;;;;;;12.80;11.53;;;;;;;14.94;100.00;99728.31;5021710;28;20276;-72
2022/09/25 09:46:14;;;;;;;12.87;11.67;;;;;;;14.63;100.00;99731.47;5043035;28;20313;-71
2022/09/25 09:49:04;;;;;;;12.77;11.60;;;;;;;14.46;100.00;99730.22;5019358;28;20185;-70
2022/09/25 09:51:49;;;;;;;13.60;12.30;;;;;;;14.56;100.00;99738.06;5034683;28;20715;-70
2022/09/25 09:54:23;;;;;;;13.53;12.20;;;;;;;14.53;100.00;99733.94;5016756;28;20542;-70
2022/09/25 09:56:51;;;;;;;12.40;11.20;;;;;;;14.62;100.00;99735.00;5012316;28;20480;-70
2022/09/25 09:59:22;;;;;;;13.03;11.83;;;;;;;14.57;100.00;99723.38;5016027;28;20187;-69
2022/09/25 10:01:57;;;;;;;13.37;12.07;;;;;;;14.53;100.00;99726.19;5026128;28;20258;-69
2022/09/25 10:04:28;;;;;;;13.43;12.03;;;;;;;14.41;100.00;99723.72;5023391;28;20206;-71
2022/09/25 10:07:03;;;;;;;14.63;13.13;;;;;;;14.53;100.00;99727.97;5013083;28;20186;-80
2022/09/25 10:09:28;;;;;;;14.40;13.00;;;;;;;14.47;100.00;99725.84;5015786;28;20182;-69
2022/09/25 10:12:04;;;;;;;15.23;13.73;;;;;;;14.53;100.00;99735.72;5016051;28;21108;-71
2022/09/25 10:14:36;;;;;;;13.27;12.00;;;;;;;14.40;100.00;99727.25;5023037;28;20209;-70
2022/09/25 10:17:03;;;;;;;13.93;12.53;;;;;;;14.07;100.00;99728.91;5011455;28;20281;-70
2022/09/25 10:19:46;;;;;;;17.30;13.47;;;;;;;13.82;100.00;99731.53;5012144;28;20649;-69
2022/09/25 10:22:15;;;;;;;14.83;13.43;;;;;;;13.80;100.00;99723.06;5018291;28;20303;-68
2022/09/25 10:25:00;;;;;;;14.57;13.13;;;;;;;13.68;100.00;99731.72;5024244;28;20202;-70
2022/09/25 10:27:37;;;;;;;15.73;14.27;;;;;;;13.64;100.00;99728.53;5028115;28;20189;-69
2022/09/25 10:30:08;;;;;;;15.97;14.47;;;;;;;13.73;100.00;99734.81;5016075;28;20193;-69
2022/09/25 10:32:45;;;;;;;15.00;13.40;;;;;;;13.86;100.00;99739.88;5027862;28;20297;-70
2022/09/25 10:35:20;;;;;;;15.70;14.13;;;;;;;13.74;100.00;99733.03;5016529;28;20578;-69
2022/09/25 10:37:51;;;;;;;16.20;14.60;;;;;;;13.58;100.00;99736.72;5029124;28;20224;-71
2022/09/25 10:40:36;;;;;;;15.13;13.20;;;;;;;13.59;100.00;99737.56;5004115;28;20618;-68
2022/09/25 10:43:11;;;;;;;14.50;12.93;;;;;;;13.66;100.00;99731.84;5021620;28;20217;-69
2022/09/25 10:45:39;;;;;;;14.20;12.77;;;;;;;13.66;100.00;99736.19;5017258;28;20760;-69
2022/09/25 10:51:20;;;;;;;15.07;13.50;;;;;;;13.80;100.00;99725.66;5019119;28;20272;-69
2022/09/25 10:53:51;;;;;;;13.70;12.43;;;;;;;13.69;100.00;99729.03;5015693;28;20183;-69
2022/09/25 10:56:31;;;;;;;14.00;12.57;;;;;;;13.69;100.00;99733.38;5024707;28;20175;-69
2022/09/25 10:59:00;;;;;;;15.30;13.87;;;;;;;13.70;100.00;99729.84;5018880;28;20293;-69
2022/09/25 11:01:38;;;;;;;15.07;13.50;;;;;;;13.59;100.00;99740.97;4981360;28;20305;-69
2022/09/25 11:04:30;;;;;;;15.07;13.60;;;;;;;13.47;100.00;99740.13;5006650;28;20201;-70
2022/09/25 11:07:00;;;;;;;13.67;12.27;;;;;;;13.44;100.00;99737.75;5010183;28;20190;-69
2022/09/25 11:09:28;;;;;;;11.90;10.80;;;;;;;13.56;100.00;99746.38;5006508;28;20186;-69
2022/09/25 11:12:07;;;;;;;9.80;8.50;;;;;;;13.30;100.00;99735.31;5025385;28;20283;-70
2022/09/25 11:14:34;;;;;;;9.50;8.50;;;;;;;13.55;100.00;99747.31;5021714;28;20190;-69
2022/09/25 11:17:04;;;;;;;8.03;7.17;;;;;;;13.47;100.00;99739.28;5029480;28;20304;-70
2022/09/25 11:19:35;;;;;;;6.50;5.80;;;;;;;13.39;100.00;99737.25;5021101;28;20265;-70
2022/09/25 11:22:15;;;;;;;6.90;5.70;;;;;;;13.22;100.00;99744.44;5010188;28;20676;-69
2022/09/25 11:25:16;;;;;;;7.57;5.50;;;;;;;13.25;100.00;99743.38;5012175;28;20256;-69
2022/09/25 11:28:08;;;;;;;7.47;5.10;;;;;;;13.19;100.00;99736.88;5018789;28;20186;-70
2022/09/25 11:30:42;;;;;;;8.40;5.50;;;;;;;13.38;100.00;99738.19;4980087;28;20297;-71
2022/09/25 11:33:41;;;;;;;6.87;4.57;;;;;;;13.51;100.00;99736.38;4993546;28;20207;-69
2022/09/25 11:36:28;;;;;;;5.70;4.63;;;;;;;13.64;100.00;99731.13;5002559;28;20584;-69
2022/09/25 11:42:14;;;;;;;4.30;3.87;;;;;;;13.49;100.00;99740.81;5031818;28;20309;-70
2022/09/25 11:45:07;;;;;;;4.20;3.33;;;;;;;13.43;100.00;99741.25;4969469;28;20212;-70
2022/09/25 11:47:45;;;;;;;6.60;4.00;;;;;;;13.40;100.00;99741.50;4953079;28;20200;-70